57,881 characters on server EU S15-Sacrofice

Name Gender Race Level Class group Power rating Account Last update
*Kanakan* Female Elf 54 Fighter/Warrior/Rogue 2672 100623786 2019-10-28
*Kaphisto* Male Nightborne 27 Mage/Wizard/Dark Sage 794 101281449 2019-10-28
*Keram* Male Elf 12 Paladin/Archer/Cleric 308 101452137 2019-10-28
*Kinetics* Female Orc 70 Fighter/Warrior/Rogue 9719 100145357 2019-10-28
*Kyrelia* Female Elf 7 Mage/Wizard/Dark Sage 243 101430400 2019-10-28
*Lana Female Orc 1 Paladin/Archer/Cleric 216 101471708 2019-10-28
*Lennox* Male Elf 17 Paladin/Archer/Cleric 422 100029647 2019-10-28
*Lily* Female Orc 6 Paladin/Archer/Cleric 253 101467082 2019-10-28
*Lithning* Female Dwarf 52 Paladin/Archer/Cleric 2510 100505662 2019-10-28
*LordY* Female Nightborne 70 Fighter/Warrior/Rogue 4952 100933306 2019-10-28
*Lovely* Female Nightborne 12 Paladin/Archer/Cleric 324 101449607 2019-10-28
*Lumisaris Female Elf 70 Mage/Wizard/Dark Sage 7970 101267257 2019-10-28
*Lyssandra* Female Elf 60 Fighter/Warrior/Rogue 5247 100897462 2019-10-28
*M* Male Elf 41 Mage/Wizard/Dark Sage 2055 100363040 2019-10-28
*Mar_melad* Male Orc 28 Mage/Wizard/Dark Sage 729 100192988 2019-10-28
*MasterNoob* Male Elf 70 Paladin/Archer/Cleric 8670 101096936 2019-10-28
*Maybach* Male Dwarf 4 Paladin/Archer/Cleric 259 101412425 2019-10-28
*Mika* Female Nightborne 11 Fighter/Warrior/Rogue 336 101454144 2019-10-28
*NYKS* Male Nightborne 70 Mage/Wizard/Dark Sage 2790 101474617 2019-10-28
*Naida* Female Human 61 Mage/Wizard/Dark Sage 1660 101347141 2019-10-28
*Namika* Female Dwarf 68 Paladin/Archer/Cleric 3273 101444462 2019-10-28
*Nefertata* Female Human 42 Paladin/Archer/Cleric 1937 101353923 2019-10-28
*Night* Female Elf 70 Fighter/Warrior/Rogue 9154 101444462 2019-10-28
*Nulle* Female Orc 4 Paladin/Archer/Cleric 228 101411090 2019-10-28
*Oopsi* Female Orc 1 Mage/Wizard/Dark Sage 223 101347141 2019-10-28
*Owndin* Male Dwarf 18 Fighter/Warrior/Rogue 546 101347141 2019-10-28
*PiNaS* Male Nightborne 47 Paladin/Archer/Cleric 2526 101423495 2019-10-28
*Rhysand* Male Elf 1 Fighter/Warrior/Rogue 237 101454144 2019-10-28
*Ronan* Male Dwarf 36 Mage/Wizard/Dark Sage 1204 101451258 2019-10-28
*SHOT* Female Orc 8 Fighter/Warrior/Rogue 260 100024032 2019-10-28
*SchrOiter* Male Nightborne 67 Fighter/Warrior/Rogue 3947 101534408 2019-10-28
*Sortie* Female Dwarf 70 Mage/Wizard/Dark Sage 7838 101382429 2019-10-28
*TaNKeR* Female Human 6 Fighter/Warrior/Rogue 260 101164667 2019-10-28
*Tessa* Female Elf 5 Paladin/Archer/Cleric 232 100909325 2019-10-28
*U_R_U* Male Dwarf 70 Mage/Wizard/Dark Sage 10722 101441110 2019-10-28
*VALZU* Female Elf 70 Paladin/Archer/Cleric 8495 100870095 2019-10-28
*Velkan* Male Human 7 Paladin/Archer/Cleric 274 101491237 2019-10-28
*WeeDQueeN* Female Human 9 Paladin/Archer/Cleric 263 100712757 2019-10-28
*Ya* Male Human 70 Paladin/Archer/Cleric 7531 101470260 2019-10-28
*Yujin` Female Orc 6 Mage/Wizard/Dark Sage 240 101437939 2019-10-28
*elis* Female Elf 1 Fighter/Warrior/Rogue 219 101431126 2019-10-28
*fen.i.rak* Female Elf 39 Paladin/Archer/Cleric 1428 100179908 2019-10-28
*h5* Female Nightborne 1 Paladin/Archer/Cleric 216 101725392 2019-10-28
*luna* Female Human 14 Mage/Wizard/Dark Sage 337 101406533 2019-10-28
*sweetie* Female Orc 70 Mage/Wizard/Dark Sage 6998 101409514 2019-10-28
*Бугимен* Female Elf 25 Paladin/Archer/Cleric 825 101302255 2019-10-28
*Вжух* Female Orc 70 Paladin/Archer/Cleric 9463 100921805 2019-10-28
*Милана* Female Dwarf 1 Mage/Wizard/Dark Sage 223 100508070 2019-10-28
*СНЕЖОК* Male Human 54 Mage/Wizard/Dark Sage 3477 100262961 2019-10-28
*Чип* Female Orc 70 Paladin/Archer/Cleric 8908 100198701 2019-10-28
*хмель* Male Orc 10 Paladin/Archer/Cleric 294 100262961 2019-10-28
+**JigSaw**+ Female Human 29 Fighter/Warrior/Rogue 787 100200037 2019-10-28
+Beby+ Female Orc 18 Fighter/Warrior/Rogue 484 101481495 2019-10-28
+Christian+ Male Orc 60 Paladin/Archer/Cleric 3066 101450434 2019-10-28
+Energizer- Male Human 60 Paladin/Archer/Cleric 7087 100238651 2019-10-28
+Georgiy+ Male Nightborne 25 Paladin/Archer/Cleric 820 101795624 2019-10-28
+LiS+ Male Human 2 Fighter/Warrior/Rogue 222 101471033 2019-10-28
+Universal+ Female Orc 7 Paladin/Archer/Cleric 261 100140542 2019-10-28
+Velzaun+ Female Human 6 Paladin/Archer/Cleric 269 100322300 2019-10-28
+Василь+ Male Human 63 Paladin/Archer/Cleric 4321 101795624 2019-10-28
+甘いカオス+ Female Elf 11 Mage/Wizard/Dark Sage 304 101460781 2019-10-28
,Ace, Male Human 6 Fighter/Warrior/Rogue 238 101416673 2019-10-28
,RoyalGodEdge Male Orc 6 Mage/Wizard/Dark Sage 240 101471493 2019-10-28
,d,d Male Human 1 Fighter/Warrior/Rogue 219 101179032 2019-10-28
,sayreep Female Human 3 Fighter/Warrior/Rogue 245 101477111 2019-10-28
Female Elf 6 Mage/Wizard/Dark Sage 238 101142855 2019-10-28
--Angelo Male Elf 2 Fighter/Warrior/Rogue 222 101476799 2019-10-28
--Miya-- Female Elf 1 Paladin/Archer/Cleric 216 101431131 2019-10-28
--Raycoon-- Female Human 7 Mage/Wizard/Dark Sage 243 101366508 2019-10-28
-.-“ Female Orc 26 Mage/Wizard/Dark Sage 1843 101451097 2019-10-28
-0neshoT- Male Orc 15 Paladin/Archer/Cleric 374 101491313 2019-10-28
-54- Male Human 19 Fighter/Warrior/Rogue 457 101469649 2019-10-28
-=Alonse=- Male Elf 70 Paladin/Archer/Cleric 6242 100560367 2019-10-28
-=B.E.S.=- Male Dwarf 1 Mage/Wizard/Dark Sage 221 100691579 2019-10-28
-=RaZoR=- Male Orc 37 Fighter/Warrior/Rogue 1739 101392485 2019-10-28
-=VITAMIN=- Male Human 1 Fighter/Warrior/Rogue 235 101482234 2019-10-28
-ATOM- Female Dwarf 32 Fighter/Warrior/Rogue 834 101441822 2019-10-28
-Abydos- Male Elf 6 Fighter/Warrior/Rogue 260 101428098 2019-10-28
-AnqeL- Male Human 10 Paladin/Archer/Cleric 267 101414340 2019-10-28
-Antu- Male Elf 70 Fighter/Warrior/Rogue 8652 101420385 2019-10-28
-Archon- Male Human 15 Fighter/Warrior/Rogue 422 101459146 2019-10-28
-Arma- Female Elf 16 Mage/Wizard/Dark Sage 422 100032000 2019-10-28
-Astral- Female Elf 34 Mage/Wizard/Dark Sage 1444 100974801 2019-10-28
-BlessedHero- Male Nightborne 34 Paladin/Archer/Cleric 1341 101545776 2019-10-28
-Box Male Elf 11 Fighter/Warrior/Rogue 307 101457948 2019-10-28
-CARTER- Male Elf 70 Paladin/Archer/Cleric 13692 101420662 2019-10-28
-Cozy- Male Human 45 Mage/Wizard/Dark Sage 2644 100323563 2019-10-28
-Cristal- Female Elf 8 Fighter/Warrior/Rogue 266 101488309 2019-10-28
-Daleah- Female Elf 70 Paladin/Archer/Cleric 12358 100974801 2019-10-28
-Dark.Mage- Male Elf 49 Mage/Wizard/Dark Sage 1909 100396567 2019-10-28
-DarkLeaf Female Nightborne 9 Mage/Wizard/Dark Sage 279 101446729 2019-10-28
-Demeter- Female Elf 1 Mage/Wizard/Dark Sage 219 101412312 2019-10-28
-Elite- Female Human 18 Mage/Wizard/Dark Sage 509 100959996 2019-10-28
-Escanor Male Human 3 Paladin/Archer/Cleric 255 101447266 2019-10-28
-Gizmo- Female Dwarf 6 Fighter/Warrior/Rogue 238 101471727 2019-10-28
-Gladius Male Elf 70 Fighter/Warrior/Rogue 6420 101359618 2019-10-28
-HardTarget- Male Human 70 Paladin/Archer/Cleric 8633 101545776 2019-10-28
-Hayalperest Male Elf 6 Fighter/Warrior/Rogue 238 101491447 2019-10-28
-HighVoltage+ Male Human 54 Paladin/Archer/Cleric 2111 101356753 2019-10-28
-ICEMAN- Male Elf 60 Mage/Wizard/Dark Sage 5848 100959996 2019-10-28